sensor_id;sensor_type;location;lat;lon;timestamp;P1;durP1;ratioP1;P2;durP2;ratioP2
21615;SDS011;10970;48.714;9.584;2023-03-21T00:00:48;5.28;;;4.78;;
21615;SDS011;10970;48.714;9.584;2023-03-21T00:03:22;8.73;;;4.50;;
21615;SDS011;10970;48.714;9.584;2023-03-21T00:05:48;8.40;;;5.13;;
21615;SDS011;10970;48.714;9.584;2023-03-21T00:08:17;9.00;;;5.20;;
21615;SDS011;10970;48.714;9.584;2023-03-21T00:10:47;6.80;;;6.00;;
21615;SDS011;10970;48.714;9.584;2023-03-21T00:13:20;5.47;;;4.00;;
21615;SDS011;10970;48.714;9.584;2023-03-21T00:15:46;5.83;;;5.23;;
21615;SDS011;10970;48.714;9.584;2023-03-21T00:18:15;5.35;;;4.25;;
21615;SDS011;10970;48.714;9.584;2023-03-21T00:20:41;5.30;;;4.07;;
21615;SDS011;10970;48.714;9.584;2023-03-21T00:23:10;6.15;;;4.88;;
21615;SDS011;10970;48.714;9.584;2023-03-21T00:25:36;4.03;;;3.70;;
21615;SDS011;10970;48.714;9.584;2023-03-21T00:28:01;7.27;;;4.50;;
21615;SDS011;10970;48.714;9.584;2023-03-21T00:30:27;3.85;;;3.45;;
21615;SDS011;10970;48.714;9.584;2023-03-21T00:32:53;6.13;;;3.37;;
21615;SDS011;10970;48.714;9.584;2023-03-21T00:35:19;7.60;;;3.93;;
21615;SDS011;10970;48.714;9.584;2023-03-21T00:37:45;5.63;;;4.57;;
21615;SDS011;10970;48.714;9.584;2023-03-21T00:40:11;4.47;;;3.70;;
21615;SDS011;10970;48.714;9.584;2023-03-21T00:42:37;6.28;;;5.68;;
21615;SDS011;10970;48.714;9.584;2023-03-21T00:45:03;9.40;;;5.70;;
21615;SDS011;10970;48.714;9.584;2023-03-21T00:47:30;8.53;;;4.43;;
21615;SDS011;10970;48.714;9.584;2023-03-21T00:49:56;4.63;;;4.23;;
21615;SDS011;10970;48.714;9.584;2023-03-21T00:52:21;5.33;;;4.37;;
21615;SDS011;10970;48.714;9.584;2023-03-21T00:54:47;5.23;;;4.53;;
21615;SDS011;10970;48.714;9.584;2023-03-21T00:57:13;5.13;;;3.93;;
21615;SDS011;10970;48.714;9.584;2023-03-21T00:59:39;5.37;;;4.17;;
21615;SDS011;10970;48.714;9.584;2023-03-21T01:02:04;4.50;;;3.30;;
21615;SDS011;10970;48.714;9.584;2023-03-21T01:04:33;5.25;;;4.43;;
21615;SDS011;10970;48.714;9.584;2023-03-21T01:06:59;4.57;;;3.53;;
21615;SDS011;10970;48.714;9.584;2023-03-21T01:09:25;5.65;;;4.30;;
21615;SDS011;10970;48.714;9.584;2023-03-21T01:11:51;4.77;;;4.30;;
21615;SDS011;10970;48.714;9.584;2023-03-21T01:14:18;4.68;;;4.28;;
21615;SDS011;10970;48.714;9.584;2023-03-21T01:16:45;5.60;;;4.18;;
21615;SDS011;10970;48.714;9.584;2023-03-21T01:19:12;3.50;;;3.20;;
21615;SDS011;10970;48.714;9.584;2023-03-21T01:21:40;7.05;;;4.85;;
21615;SDS011;10970;48.714;9.584;2023-03-21T01:24:06;5.10;;;4.00;;
21615;SDS011;10970;48.714;9.584;2023-03-21T01:26:32;4.50;;;4.10;;
21615;SDS011;10970;48.714;9.584;2023-03-21T01:28:58;5.17;;;4.17;;
21615;SDS011;10970;48.714;9.584;2023-03-21T01:31:24;8.33;;;4.60;;
21615;SDS011;10970;48.714;9.584;2023-03-21T01:33:50;3.50;;;3.20;;
21615;SDS011;10970;48.714;9.584;2023-03-21T01:36:16;5.63;;;4.00;;
21615;SDS011;10970;48.714;9.584;2023-03-21T01:38:45;5.20;;;3.80;;
21615;SDS011;10970;48.714;9.584;2023-03-21T01:41:45;7.75;;;4.63;;
21615;SDS011;10970;48.714;9.584;2023-03-21T01:44:05;4.55;;;3.13;;
21615;SDS011;10970;48.714;9.584;2023-03-21T01:52:04;6.93;;;4.03;;
21615;SDS011;10970;48.714;9.584;2023-03-21T01:54:33;6.63;;;4.05;;
21615;SDS011;10970;48.714;9.584;2023-03-21T01:57:03;5.32;;;4.82;;
21615;SDS011;10970;48.714;9.584;2023-03-21T01:59:39;6.30;;;3.67;;
21615;SDS011;10970;48.714;9.584;2023-03-21T02:02:08;4.30;;;3.90;;
21615;SDS011;10970;48.714;9.584;2023-03-21T02:04:38;7.78;;;4.63;;
21615;SDS011;10970;48.714;9.584;2023-03-21T02:07:08;7.72;;;5.00;;
21615;SDS011;10970;48.714;9.584;2023-03-21T02:09:39;4.75;;;4.28;;
21615;SDS011;10970;48.714;9.584;2023-03-21T02:12:08;7.25;;;4.72;;
21615;SDS011;10970;48.714;9.584;2023-03-21T02:14:35;6.13;;;4.57;;
21615;SDS011;10970;48.714;9.584;2023-03-21T02:41:24;6.40;;;4.07;;
21615;SDS011;10970;48.714;9.584;2023-03-21T02:44:04;4.70;;;4.25;;
21615;SDS011;10970;48.714;9.584;2023-03-21T02:47:02;4.78;;;4.38;;
21615;SDS011;10970;48.714;9.584;2023-03-21T02:49:30;4.70;;;3.97;;
21615;SDS011;10970;48.714;9.584;2023-03-21T02:52:02;6.10;;;3.92;;
21615;SDS011;10970;48.714;9.584;2023-03-21T02:54:31;4.60;;;3.70;;
21615;SDS011;10970;48.714;9.584;2023-03-21T02:56:58;4.40;;;3.65;;
21615;SDS011;10970;48.714;9.584;2023-03-21T02:59:27;6.28;;;4.28;;
21615;SDS011;10970;48.714;9.584;2023-03-21T03:01:54;12.02;;;4.07;;
21615;SDS011;10970;48.714;9.584;2023-03-21T03:04:22;5.38;;;3.55;;
21615;SDS011;10970;48.714;9.584;2023-03-21T03:06:56;4.15;;;3.78;;
21615;SDS011;10970;48.714;9.584;2023-03-21T03:21:05;6.97;;;4.15;;
21615;SDS011;10970;48.714;9.584;2023-03-21T03:28:51;5.20;;;3.70;;
21615;SDS011;10970;48.714;9.584;2023-03-21T03:31:22;4.20;;;3.40;;
21615;SDS011;10970;48.714;9.584;2023-03-21T03:33:51;6.10;;;4.10;;
21615;SDS011;10970;48.714;9.584;2023-03-21T03:36:21;3.95;;;3.58;;
21615;SDS011;10970;48.714;9.584;2023-03-21T03:38:51;8.57;;;4.25;;
21615;SDS011;10970;48.714;9.584;2023-03-21T03:41:23;8.50;;;3.90;;
21615;SDS011;10970;48.714;9.584;2023-03-21T03:43:52;7.18;;;4.15;;
21615;SDS011;10970;48.714;9.584;2023-03-21T03:46:26;5.20;;;3.78;;
21615;SDS011;10970;48.714;9.584;2023-03-21T03:48:59;7.30;;;3.67;;
21615;SDS011;10970;48.714;9.584;2023-03-21T03:51:34;7.07;;;3.80;;
21615;SDS011;10970;48.714;9.584;2023-03-21T03:54:08;4.55;;;4.15;;
21615;SDS011;10970;48.714;9.584;2023-03-21T03:56:37;4.88;;;4.30;;
21615;SDS011;10970;48.714;9.584;2023-03-21T03:59:04;5.93;;;4.15;;
21615;SDS011;10970;48.714;9.584;2023-03-21T04:01:31;4.22;;;3.83;;
21615;SDS011;10970;48.714;9.584;2023-03-21T04:03:58;5.90;;;3.83;;
21615;SDS011;10970;48.714;9.584;2023-03-21T04:06:24;3.67;;;3.33;;
21615;SDS011;10970;48.714;9.584;2023-03-21T04:08:52;4.80;;;4.25;;
21615;SDS011;10970;48.714;9.584;2023-03-21T04:11:20;4.97;;;4.00;;
21615;SDS011;10970;48.714;9.584;2023-03-21T04:13:45;6.10;;;3.90;;
21615;SDS011;10970;48.714;9.584;2023-03-21T04:16:11;7.10;;;3.40;;
21615;SDS011;10970;48.714;9.584;2023-03-21T04:18:38;4.05;;;3.75;;
21615;SDS011;10970;48.714;9.584;2023-03-21T04:21:09;6.13;;;3.80;;
21615;SDS011;10970;48.714;9.584;2023-03-21T04:23:36;5.50;;;4.68;;
21615;SDS011;10970;48.714;9.584;2023-03-21T04:26:03;10.23;;;4.47;;
21615;SDS011;10970;48.714;9.584;2023-03-21T04:28:29;6.07;;;5.47;;
21615;SDS011;10970;48.714;9.584;2023-03-21T04:30:57;5.75;;;4.07;;
21615;SDS011;10970;48.714;9.584;2023-03-21T04:33:23;6.18;;;4.75;;
21615;SDS011;10970;48.714;9.584;2023-03-21T04:35:50;8.85;;;5.13;;
21615;SDS011;10970;48.714;9.584;2023-03-21T04:38:21;5.55;;;4.70;;
21615;SDS011;10970;48.714;9.584;2023-03-21T04:40:47;5.70;;;4.35;;
21615;SDS011;10970;48.714;9.584;2023-03-21T04:43:13;4.47;;;4.07;;
21615;SDS011;10970;48.714;9.584;2023-03-21T04:45:39;6.97;;;5.30;;
21615;SDS011;10970;48.714;9.584;2023-03-21T04:48:05;5.47;;;4.97;;
21615;SDS011;10970;48.714;9.584;2023-03-21T04:50:30;6.80;;;4.87;;
21615;SDS011;10970;48.714;9.584;2023-03-21T04:52:56;5.80;;;5.27;;
21615;SDS011;10970;48.714;9.584;2023-03-21T04:55:22;9.03;;;4.83;;
21615;SDS011;10970;48.714;9.584;2023-03-21T04:57:50;7.18;;;4.60;;
21615;SDS011;10970;48.714;9.584;2023-03-21T05:00:16;8.40;;;4.60;;
21615;SDS011;10970;48.714;9.584;2023-03-21T05:02:42;8.17;;;4.30;;
21615;SDS011;10970;48.714;9.584;2023-03-21T05:05:09;5.45;;;4.80;;
21615;SDS011;10970;48.714;9.584;2023-03-21T05:07:39;5.32;;;4.82;;
21615;SDS011;10970;48.714;9.584;2023-03-21T05:10:06;6.63;;;4.75;;
21615;SDS011;10970;48.714;9.584;2023-03-21T05:12:34;10.85;;;5.13;;
21615;SDS011;10970;48.714;9.584;2023-03-21T05:14:59;7.07;;;5.90;;
21615;SDS011;10970;48.714;9.584;2023-03-21T05:17:25;7.73;;;4.67;;
21615;SDS011;10970;48.714;9.584;2023-03-21T05:19:52;6.03;;;5.45;;
21615;SDS011;10970;48.714;9.584;2023-03-21T05:22:20;6.50;;;5.00;;
21615;SDS011;10970;48.714;9.584;2023-03-21T05:24:48;14.20;;;5.55;;
21615;SDS011;10970;48.714;9.584;2023-03-21T05:27:18;6.68;;;5.10;;
21615;SDS011;10970;48.714;9.584;2023-03-21T05:30:00;5.95;;;5.15;;
21615;SDS011;10970;48.714;9.584;2023-03-21T05:32:26;4.82;;;4.53;;
21615;SDS011;10970;48.714;9.584;2023-03-21T05:34:51;8.53;;;6.90;;
21615;SDS011;10970;48.714;9.584;2023-03-21T05:37:17;11.80;;;4.80;;
21615;SDS011;10970;48.714;9.584;2023-03-21T05:39:42;4.93;;;4.53;;
21615;SDS011;10970;48.714;9.584;2023-03-21T05:42:08;5.77;;;5.07;;
21615;SDS011;10970;48.714;9.584;2023-03-21T05:44:34;4.70;;;4.40;;
21615;SDS011;10970;48.714;9.584;2023-03-21T05:46:59;6.37;;;5.20;;
21615;SDS011;10970;48.714;9.584;2023-03-21T05:49:25;9.53;;;4.77;;
21615;SDS011;10970;48.714;9.584;2023-03-21T05:51:51;6.10;;;4.77;;
21615;SDS011;10970;48.714;9.584;2023-03-21T05:54:16;5.90;;;5.00;;
21615;SDS011;10970;48.714;9.584;2023-03-21T05:56:42;5.30;;;4.80;;
21615;SDS011;10970;48.714;9.584;2023-03-21T05:59:07;5.67;;;4.90;;
21615;SDS011;10970;48.714;9.584;2023-03-21T06:01:33;9.50;;;5.13;;
21615;SDS011;10970;48.714;9.584;2023-03-21T06:03:59;4.63;;;4.23;;
21615;SDS011;10970;48.714;9.584;2023-03-21T06:06:24;7.33;;;5.97;;
21615;SDS011;10970;48.714;9.584;2023-03-21T06:08:50;6.30;;;5.70;;
21615;SDS011;10970;48.714;9.584;2023-03-21T06:11:22;6.80;;;6.03;;
21615;SDS011;10970;48.714;9.584;2023-03-21T06:13:51;9.18;;;7.30;;
21615;SDS011;10970;48.714;9.584;2023-03-21T06:16:16;10.10;;;6.83;;
21615;SDS011;10970;48.714;9.584;2023-03-21T06:18:42;7.37;;;6.43;;
21615;SDS011;10970;48.714;9.584;2023-03-21T06:21:08;5.83;;;5.33;;
21615;SDS011;10970;48.714;9.584;2023-03-21T06:23:33;6.00;;;5.40;;
21615;SDS011;10970;48.714;9.584;2023-03-21T06:26:00;8.98;;;6.25;;
21615;SDS011;10970;48.714;9.584;2023-03-21T06:28:26;11.10;;;6.60;;
21615;SDS011;10970;48.714;9.584;2023-03-21T06:30:52;7.30;;;5.60;;
21615;SDS011;10970;48.714;9.584;2023-03-21T06:33:17;8.57;;;6.00;;
21615;SDS011;10970;48.714;9.584;2023-03-21T06:35:43;9.50;;;4.77;;
21615;SDS011;10970;48.714;9.584;2023-03-21T06:38:09;9.23;;;5.50;;
21615;SDS011;10970;48.714;9.584;2023-03-21T06:40:36;6.87;;;5.10;;
21615;SDS011;10970;48.714;9.584;2023-03-21T06:43:02;7.07;;;5.30;;
21615;SDS011;10970;48.714;9.584;2023-03-21T06:45:28;5.93;;;5.00;;
21615;SDS011;10970;48.714;9.584;2023-03-21T06:47:53;7.10;;;5.30;;
21615;SDS011;10970;48.714;9.584;2023-03-21T06:50:19;5.10;;;4.70;;
21615;SDS011;10970;48.714;9.584;2023-03-21T06:52:44;5.00;;;4.60;;
21615;SDS011;10970;48.714;9.584;2023-03-21T06:55:10;6.20;;;5.70;;
21615;SDS011;10970;48.714;9.584;2023-03-21T06:57:36;4.87;;;4.47;;
21615;SDS011;10970;48.714;9.584;2023-03-21T07:00:02;11.00;;;5.57;;
21615;SDS011;10970;48.714;9.584;2023-03-21T07:02:29;5.30;;;4.80;;
21615;SDS011;10970;48.714;9.584;2023-03-21T07:04:55;8.70;;;5.53;;
21615;SDS011;10970;48.714;9.584;2023-03-21T07:07:23;7.30;;;4.90;;
21615;SDS011;10970;48.714;9.584;2023-03-21T07:09:51;7.50;;;5.30;;
21615;SDS011;10970;48.714;9.584;2023-03-21T07:12:16;7.40;;;5.13;;
21615;SDS011;10970;48.714;9.584;2023-03-21T07:14:42;5.13;;;4.50;;
21615;SDS011;10970;48.714;9.584;2023-03-21T07:17:07;5.33;;;4.40;;
21615;SDS011;10970;48.714;9.584;2023-03-21T07:19:33;5.47;;;4.97;;
21615;SDS011;10970;48.714;9.584;2023-03-21T07:21:59;5.90;;;4.90;;
21615;SDS011;10970;48.714;9.584;2023-03-21T07:24:25;10.60;;;5.80;;
21615;SDS011;10970;48.714;9.584;2023-03-21T07:26:51;5.30;;;4.80;;
21615;SDS011;10970;48.714;9.584;2023-03-21T07:29:17;6.37;;;5.70;;
21615;SDS011;10970;48.714;9.584;2023-03-21T07:31:45;6.10;;;4.33;;
21615;SDS011;10970;48.714;9.584;2023-03-21T07:34:11;6.10;;;4.70;;
21615;SDS011;10970;48.714;9.584;2023-03-21T07:36:37;5.40;;;4.10;;
21615;SDS011;10970;48.714;9.584;2023-03-21T07:39:03;5.10;;;3.77;;
21615;SDS011;10970;48.714;9.584;2023-03-21T07:41:28;4.40;;;4.03;;
21615;SDS011;10970;48.714;9.584;2023-03-21T07:43:54;4.80;;;4.40;;
21615;SDS011;10970;48.714;9.584;2023-03-21T07:46:20;6.43;;;5.87;;
21615;SDS011;10970;48.714;9.584;2023-03-21T07:48:45;4.30;;;3.87;;
21615;SDS011;10970;48.714;9.584;2023-03-21T07:51:11;4.70;;;4.30;;
21615;SDS011;10970;48.714;9.584;2023-03-21T07:53:37;4.13;;;3.73;;
21615;SDS011;10970;48.714;9.584;2023-03-21T07:56:03;4.70;;;4.30;;
21615;SDS011;10970;48.714;9.584;2023-03-21T07:58:29;4.60;;;4.10;;
21615;SDS011;10970;48.714;9.584;2023-03-21T08:00:55;5.60;;;3.97;;
21615;SDS011;10970;48.714;9.584;2023-03-21T08:03:22;5.17;;;4.07;;
21615;SDS011;10970;48.714;9.584;2023-03-21T08:05:50;4.43;;;4.03;;
21615;SDS011;10970;48.714;9.584;2023-03-21T08:08:16;5.20;;;4.80;;
21615;SDS011;10970;48.714;9.584;2023-03-21T08:10:42;6.57;;;4.40;;
21615;SDS011;10970;48.714;9.584;2023-03-21T08:13:08;3.77;;;3.43;;
21615;SDS011;10970;48.714;9.584;2023-03-21T08:15:34;4.33;;;3.93;;
21615;SDS011;10970;48.714;9.584;2023-03-21T08:17:59;3.90;;;3.60;;
21615;SDS011;10970;48.714;9.584;2023-03-21T08:20:25;5.07;;;4.57;;
21615;SDS011;10970;48.714;9.584;2023-03-21T08:22:52;5.50;;;3.77;;
21615;SDS011;10970;48.714;9.584;2023-03-21T08:25:18;4.80;;;4.27;;
21615;SDS011;10970;48.714;9.584;2023-03-21T08:27:46;4.53;;;4.20;;
21615;SDS011;10970;48.714;9.584;2023-03-21T08:30:13;5.27;;;4.87;;
21615;SDS011;10970;48.714;9.584;2023-03-21T08:32:41;4.53;;;4.23;;
21615;SDS011;10970;48.714;9.584;2023-03-21T08:35:08;4.17;;;3.77;;
21615;SDS011;10970;48.714;9.584;2023-03-21T08:37:35;4.50;;;4.10;;
21615;SDS011;10970;48.714;9.584;2023-03-21T08:40:02;4.40;;;4.00;;
21615;SDS011;10970;48.714;9.584;2023-03-21T08:42:32;4.30;;;3.90;;
21615;SDS011;10970;48.714;9.584;2023-03-21T08:44:58;4.77;;;4.07;;
21615;SDS011;10970;48.714;9.584;2023-03-21T08:47:23;3.63;;;3.33;;
21615;SDS011;10970;48.714;9.584;2023-03-21T08:49:49;4.00;;;3.70;;
21615;SDS011;10970;48.714;9.584;2023-03-21T08:52:15;4.80;;;4.40;;
21615;SDS011;10970;48.714;9.584;2023-03-21T08:54:40;5.40;;;4.90;;
21615;SDS011;10970;48.714;9.584;2023-03-21T08:57:08;3.57;;;3.30;;
21615;SDS011;10970;48.714;9.584;2023-03-21T08:59:35;3.63;;;3.17;;
21615;SDS011;10970;48.714;9.584;2023-03-21T09:02:01;2.60;;;2.40;;
21615;SDS011;10970;48.714;9.584;2023-03-21T09:04:27;2.57;;;2.37;;
21615;SDS011;10970;48.714;9.584;2023-03-21T09:06:54;5.80;;;2.20;;
21615;SDS011;10970;48.714;9.584;2023-03-21T09:09:20;3.73;;;2.60;;
21615;SDS011;10970;48.714;9.584;2023-03-21T09:11:46;2.90;;;2.70;;
21615;SDS011;10970;48.714;9.584;2023-03-21T09:14:11;3.37;;;2.80;;
21615;SDS011;10970;48.714;9.584;2023-03-21T09:16:37;3.33;;;2.57;;
21615;SDS011;10970;48.714;9.584;2023-03-21T09:19:03;2.67;;;2.47;;
21615;SDS011;10970;48.714;9.584;2023-03-21T09:21:32;2.53;;;2.33;;
21615;SDS011;10970;48.714;9.584;2023-03-21T09:24:00;3.03;;;2.80;;
21615;SDS011;10970;48.714;9.584;2023-03-21T09:26:26;3.50;;;3.20;;
21615;SDS011;10970;48.714;9.584;2023-03-21T09:28:53;5.30;;;3.27;;
21615;SDS011;10970;48.714;9.584;2023-03-21T09:31:20;3.70;;;2.90;;
21615;SDS011;10970;48.714;9.584;2023-03-21T09:33:50;3.50;;;3.20;;
21615;SDS011;10970;48.714;9.584;2023-03-21T09:36:17;4.43;;;2.97;;
21615;SDS011;10970;48.714;9.584;2023-03-21T09:38:45;3.00;;;2.80;;
21615;SDS011;10970;48.714;9.584;2023-03-21T09:47:20;3.43;;;3.13;;
21615;SDS011;10970;48.714;9.584;2023-03-21T09:50:01;3.60;;;2.70;;
21615;SDS011;10970;48.714;9.584;2023-03-21T09:53:31;3.50;;;3.20;;
21615;SDS011;10970;48.714;9.584;2023-03-21T09:56:16;5.00;;;2.90;;
21615;SDS011;10970;48.714;9.584;2023-03-21T09:58:43;4.50;;;2.93;;
21615;SDS011;10970;48.714;9.584;2023-03-21T10:01:17;2.97;;;2.77;;
21615;SDS011;10970;48.714;9.584;2023-03-21T10:03:51;3.03;;;2.73;;
21615;SDS011;10970;48.714;9.584;2023-03-21T10:06:19;2.53;;;2.43;;
21615;SDS011;10970;48.714;9.584;2023-03-21T10:08:58;3.53;;;3.23;;
21615;SDS011;10970;48.714;9.584;2023-03-21T10:11:33;2.50;;;2.30;;
21615;SDS011;10970;48.714;9.584;2023-03-21T10:14:06;4.13;;;2.70;;
21615;SDS011;10970;48.714;9.584;2023-03-21T10:16:50;2.87;;;2.67;;
21615;SDS011;10970;48.714;9.584;2023-03-21T10:19:20;3.60;;;3.30;;
21615;SDS011;10970;48.714;9.584;2023-03-21T10:21:48;3.07;;;2.77;;
21615;SDS011;10970;48.714;9.584;2023-03-21T10:24:16;5.60;;;3.00;;
21615;SDS011;10970;48.714;9.584;2023-03-21T10:26:48;3.47;;;3.17;;
21615;SDS011;10970;48.714;9.584;2023-03-21T10:29:15;3.30;;;2.90;;
21615;SDS011;10970;48.714;9.584;2023-03-21T10:31:43;3.10;;;2.90;;
21615;SDS011;10970;48.714;9.584;2023-03-21T10:34:18;2.80;;;2.60;;
21615;SDS011;10970;48.714;9.584;2023-03-21T10:36:50;2.50;;;2.30;;
21615;SDS011;10970;48.714;9.584;2023-03-21T10:42:01;3.97;;;3.00;;
21615;SDS011;10970;48.714;9.584;2023-03-21T10:44:30;3.63;;;3.33;;
21615;SDS011;10970;48.714;9.584;2023-03-21T10:46:58;4.43;;;3.43;;
21615;SDS011;10970;48.714;9.584;2023-03-21T10:49:29;2.97;;;2.70;;
21615;SDS011;10970;48.714;9.584;2023-03-21T10:51:57;4.80;;;3.50;;
21615;SDS011;10970;48.714;9.584;2023-03-21T10:54:27;2.70;;;2.50;;
21615;SDS011;10970;48.714;9.584;2023-03-21T10:57:05;3.13;;;2.90;;
21615;SDS011;10970;48.714;9.584;2023-03-21T10:59:42;8.27;;;3.00;;
21615;SDS011;10970;48.714;9.584;2023-03-21T11:02:15;3.00;;;2.57;;
21615;SDS011;10970;48.714;9.584;2023-03-21T11:04:45;3.00;;;2.70;;
21615;SDS011;10970;48.714;9.584;2023-03-21T11:07:12;2.90;;;2.60;;
21615;SDS011;10970;48.714;9.584;2023-03-21T11:12:12;3.27;;;2.97;;
21615;SDS011;10970;48.714;9.584;2023-03-21T11:14:47;3.00;;;2.70;;
21615;SDS011;10970;48.714;9.584;2023-03-21T11:19:53;5.23;;;2.97;;
21615;SDS011;10970;48.714;9.584;2023-03-21T11:22:23;8.63;;;3.87;;
21615;SDS011;10970;48.714;9.584;2023-03-21T11:24:55;3.30;;;3.10;;
21615;SDS011;10970;48.714;9.584;2023-03-21T11:27:24;3.67;;;3.37;;
21615;SDS011;10970;48.714;9.584;2023-03-21T11:29:55;3.10;;;2.77;;
21615;SDS011;10970;48.714;9.584;2023-03-21T11:32:24;2.97;;;2.77;;
21615;SDS011;10970;48.714;9.584;2023-03-21T11:34:57;2.57;;;2.37;;
21615;SDS011;10970;48.714;9.584;2023-03-21T11:42:48;3.00;;;2.80;;
21615;SDS011;10970;48.714;9.584;2023-03-21T11:45:17;2.03;;;1.83;;
21615;SDS011;10970;48.714;9.584;2023-03-21T11:47:46;2.17;;;1.97;;
21615;SDS011;10970;48.714;9.584;2023-03-21T11:50:21;1.77;;;1.67;;
21615;SDS011;10970;48.714;9.584;2023-03-21T12:06:16;3.37;;;3.00;;
21615;SDS011;10970;48.714;9.584;2023-03-21T12:25:29;1.93;;;1.60;;
21615;SDS011;10970;48.714;9.584;2023-03-21T12:46:21;1.60;;;1.50;;
21615;SDS011;10970;48.714;9.584;2023-03-21T12:49:27;1.63;;;1.53;;
21615;SDS011;10970;48.714;9.584;2023-03-21T12:52:35;1.17;;;1.07;;
21615;SDS011;10970;48.714;9.584;2023-03-21T12:55:05;1.93;;;1.33;;
21615;SDS011;10970;48.714;9.584;2023-03-21T12:58:03;1.63;;;1.13;;
21615;SDS011;10970;48.714;9.584;2023-03-21T13:00:44;1.50;;;1.40;;
21615;SDS011;10970;48.714;9.584;2023-03-21T13:03:17;1.80;;;1.40;;
21615;SDS011;10970;48.714;9.584;2023-03-21T13:06:01;1.37;;;0.87;;
21615;SDS011;10970;48.714;9.584;2023-03-21T13:08:36;1.50;;;1.17;;
21615;SDS011;10970;48.714;9.584;2023-03-21T13:11:06;1.20;;;1.10;;
21615;SDS011;10970;48.714;9.584;2023-03-21T13:24:17;3.03;;;1.37;;
21615;SDS011;10970;48.714;9.584;2023-03-21T13:26:44;2.87;;;1.47;;
21615;SDS011;10970;48.714;9.584;2023-03-21T13:29:27;2.50;;;1.33;;
21615;SDS011;10970;48.714;9.584;2023-03-21T13:31:58;1.73;;;1.20;;
21615;SDS011;10970;48.714;9.584;2023-03-21T13:34:32;2.10;;;1.40;;
21615;SDS011;10970;48.714;9.584;2023-03-21T13:36:58;1.23;;;1.13;;
21615;SDS011;10970;48.714;9.584;2023-03-21T13:39:27;1.23;;;1.13;;
21615;SDS011;10970;48.714;9.584;2023-03-21T13:41:53;1.10;;;1.00;;
21615;SDS011;10970;48.714;9.584;2023-03-21T13:44:37;1.63;;;0.93;;
21615;SDS011;10970;48.714;9.584;2023-03-21T13:47:21;2.97;;;1.37;;
21615;SDS011;10970;48.714;9.584;2023-03-21T13:52:41;1.07;;;0.97;;
21615;SDS011;10970;48.714;9.584;2023-03-21T13:55:15;1.70;;;1.60;;
21615;SDS011;10970;48.714;9.584;2023-03-21T13:57:45;1.40;;;1.30;;
21615;SDS011;10970;48.714;9.584;2023-03-21T14:00:28;2.00;;;1.23;;
21615;SDS011;10970;48.714;9.584;2023-03-21T14:05:33;2.17;;;1.30;;
21615;SDS011;10970;48.714;9.584;2023-03-21T14:08:02;1.53;;;1.43;;
21615;SDS011;10970;48.714;9.584;2023-03-21T14:10:36;1.50;;;1.40;;
21615;SDS011;10970;48.714;9.584;2023-03-21T14:13:06;2.53;;;2.33;;
21615;SDS011;10970;48.714;9.584;2023-03-21T14:15:44;1.47;;;1.37;;
21615;SDS011;10970;48.714;9.584;2023-03-21T14:18:18;2.90;;;1.30;;
21615;SDS011;10970;48.714;9.584;2023-03-21T14:20:50;3.03;;;1.43;;
21615;SDS011;10970;48.714;9.584;2023-03-21T14:23:20;1.20;;;1.10;;
21615;SDS011;10970;48.714;9.584;2023-03-21T14:25:46;1.20;;;0.93;;
21615;SDS011;10970;48.714;9.584;2023-03-21T14:30:42;5.30;;;1.53;;
21615;SDS011;10970;48.714;9.584;2023-03-21T14:33:21;2.70;;;1.43;;
21615;SDS011;10970;48.714;9.584;2023-03-21T14:36:01;1.60;;;1.50;;
21615;SDS011;10970;48.714;9.584;2023-03-21T14:38:36;1.83;;;1.43;;
21615;SDS011;10970;48.714;9.584;2023-03-21T14:41:04;1.07;;;1.00;;
21615;SDS011;10970;48.714;9.584;2023-03-21T14:43:43;1.30;;;1.20;;
21615;SDS011;10970;48.714;9.584;2023-03-21T14:46:10;1.90;;;1.80;;
21615;SDS011;10970;48.714;9.584;2023-03-21T14:48:37;1.37;;;1.27;;
21615;SDS011;10970;48.714;9.584;2023-03-21T14:51:06;1.67;;;1.57;;
21615;SDS011;10970;48.714;9.584;2023-03-21T14:53:37;2.30;;;1.70;;
21615;SDS011;10970;48.714;9.584;2023-03-21T14:56:10;1.53;;;1.43;;
21615;SDS011;10970;48.714;9.584;2023-03-21T14:58:44;1.30;;;1.20;;
21615;SDS011;10970;48.714;9.584;2023-03-21T15:01:27;1.97;;;1.77;;
21615;SDS011;10970;48.714;9.584;2023-03-21T15:03:56;2.03;;;1.93;;
21615;SDS011;10970;48.714;9.584;2023-03-21T15:06:22;1.27;;;1.17;;
21615;SDS011;10970;48.714;9.584;2023-03-21T15:08:54;1.73;;;1.63;;
21615;SDS011;10970;48.714;9.584;2023-03-21T15:11:27;2.07;;;1.97;;
21615;SDS011;10970;48.714;9.584;2023-03-21T15:14:08;2.37;;;1.70;;
21615;SDS011;10970;48.714;9.584;2023-03-21T15:16:36;1.43;;;1.33;;
21615;SDS011;10970;48.714;9.584;2023-03-21T15:19:03;1.57;;;1.47;;
21615;SDS011;10970;48.714;9.584;2023-03-21T15:24:32;1.53;;;1.43;;
21615;SDS011;10970;48.714;9.584;2023-03-21T15:27:05;5.03;;;2.63;;
21615;SDS011;10970;48.714;9.584;2023-03-21T15:29:36;2.33;;;1.70;;
21615;SDS011;10970;48.714;9.584;2023-03-21T15:32:03;1.50;;;1.33;;
21615;SDS011;10970;48.714;9.584;2023-03-21T15:34:31;2.20;;;1.93;;
21615;SDS011;10970;48.714;9.584;2023-03-21T15:36:59;2.13;;;1.87;;
21615;SDS011;10970;48.714;9.584;2023-03-21T15:39:31;2.23;;;2.13;;
21615;SDS011;10970;48.714;9.584;2023-03-21T15:42:21;1.83;;;1.73;;
21615;SDS011;10970;48.714;9.584;2023-03-21T15:44:50;2.07;;;1.93;;
21615;SDS011;10970;48.714;9.584;2023-03-21T15:52:59;1.60;;;1.50;;
21615;SDS011;10970;48.714;9.584;2023-03-21T15:55:30;5.63;;;2.00;;
21615;SDS011;10970;48.714;9.584;2023-03-21T15:58:13;2.60;;;1.47;;
21615;SDS011;10970;48.714;9.584;2023-03-21T16:00:45;1.60;;;1.50;;
21615;SDS011;10970;48.714;9.584;2023-03-21T16:03:24;1.93;;;1.67;;
21615;SDS011;10970;48.714;9.584;2023-03-21T16:08:47;2.50;;;1.83;;
21615;SDS011;10970;48.714;9.584;2023-03-21T16:11:42;1.73;;;1.50;;
21615;SDS011;10970;48.714;9.584;2023-03-21T16:14:13;1.67;;;1.57;;
21615;SDS011;10970;48.714;9.584;2023-03-21T16:16:39;4.87;;;1.87;;
21615;SDS011;10970;48.714;9.584;2023-03-21T16:19:04;2.23;;;1.60;;
21615;SDS011;10970;48.714;9.584;2023-03-21T16:21:31;2.23;;;1.80;;
21615;SDS011;10970;48.714;9.584;2023-03-21T16:23:58;5.23;;;1.67;;
21615;SDS011;10970;48.714;9.584;2023-03-21T16:26:28;1.50;;;1.40;;
21615;SDS011;10970;48.714;9.584;2023-03-21T16:28:59;2.07;;;1.83;;
21615;SDS011;10970;48.714;9.584;2023-03-21T16:31:26;2.00;;;1.90;;
21615;SDS011;10970;48.714;9.584;2023-03-21T16:33:54;2.37;;;1.73;;
21615;SDS011;10970;48.714;9.584;2023-03-21T16:36:22;2.70;;;1.63;;
21615;SDS011;10970;48.714;9.584;2023-03-21T16:38:49;2.50;;;2.07;;
21615;SDS011;10970;48.714;9.584;2023-03-21T16:41:19;1.80;;;1.37;;
21615;SDS011;10970;48.714;9.584;2023-03-21T16:43:46;1.80;;;1.60;;
21615;SDS011;10970;48.714;9.584;2023-03-21T16:48:44;2.30;;;1.37;;
21615;SDS011;10970;48.714;9.584;2023-03-21T16:51:12;1.30;;;1.20;;
21615;SDS011;10970;48.714;9.584;2023-03-21T16:53:39;1.40;;;1.30;;
21615;SDS011;10970;48.714;9.584;2023-03-21T16:56:05;3.57;;;1.83;;
21615;SDS011;10970;48.714;9.584;2023-03-21T16:58:33;3.33;;;1.40;;
21615;SDS011;10970;48.714;9.584;2023-03-21T17:00:59;1.33;;;1.27;;
21615;SDS011;10970;48.714;9.584;2023-03-21T17:03:25;1.40;;;1.30;;
21615;SDS011;10970;48.714;9.584;2023-03-21T17:05:51;2.20;;;1.97;;
21615;SDS011;10970;48.714;9.584;2023-03-21T17:08:17;2.67;;;2.07;;
21615;SDS011;10970;48.714;9.584;2023-03-21T17:10:43;4.50;;;3.40;;
21615;SDS011;10970;48.714;9.584;2023-03-21T17:13:09;8.87;;;7.97;;
21615;SDS011;10970;48.714;9.584;2023-03-21T17:15:36;6.77;;;5.90;;
21615;SDS011;10970;48.714;9.584;2023-03-21T17:18:02;3.60;;;3.30;;
21615;SDS011;10970;48.714;9.584;2023-03-21T17:20:29;2.50;;;2.17;;
21615;SDS011;10970;48.714;9.584;2023-03-21T17:22:59;8.00;;;2.60;;
21615;SDS011;10970;48.714;9.584;2023-03-21T17:25:25;4.80;;;2.37;;
21615;SDS011;10970;48.714;9.584;2023-03-21T17:27:51;3.73;;;2.27;;